Stolt Lind — MAQR2 — position and weather

sailwx.info

Track history (hours):
 
Tides and Currents Weather Stations Pressure Air Temp Water Temp Dewpoint Dewpoint Depression Visibility Wind Speed Wind Dir Waves Ship Positions

Stolt Lind

Last reported at 2017-Dec-03 23:07 UTC. Time now 2017-Dec-18 03:21 UTC.
Position S 30°24' E 031°16'.
Warning: this ship's position is 14 days out of date.

Length 185 m; draft 10.8 m.

Type: Ship (hazmat cat A). MMSI: 232006648.

Date/timePositionNaut miles runAvg speedWind from/ knotsBaromVisibWave heightAir tempDewpointWater temp
2017-Dec-03 23:07S 30°24' E 031°16'214.4
2017-Dec-03 23:00S 30°23' E 031°17'714.3
2017-Dec-03 22:30S 30°17' E 031°21'714.2
2017-Dec-03 22:00S 30°11' E 031°26'714.4
2017-Dec-03 21:30S 30°05' E 031°30'714.5
2017-Dec-03 21:00S 29°59' E 031°35'714.2
2017-Dec-03 20:30S 29°53' E 031°39'714.1
2017-Dec-03 20:01S 29°47' E 031°44'713.8
2017-Dec-03 19:30S 29°41' E 031°48'713.7
2017-Dec-03 19:00S 29°36' E 031°53'48 1.6
2017-Dec-02 13:18S 28°48' E 032°04'0 0.0
2017-Dec-02 12:57S 28°48' E 032°04'4 0.2
2017-Dec-01 09:59S 28°50' E 032°08'  
2017-Nov-28 13:07S 29°50' E 031°50'110.5
2017-Nov-28 12:59S 29°50' E 031°48'510.3
2017-Nov-28 12:30S 29°50' E 031°43'510.4
2017-Nov-28 12:01S 29°50' E 031°37'612.4
2017-Nov-28 11:30S 29°50' E 031°29'612.6
2017-Nov-28 11:00S 29°50' E 031°22'612.4
2017-Nov-28 10:30S 29°50' E 031°15'611.6
2017-Nov-28 10:00S 29°50' E 031°08'5 9.7
2017-Nov-28 09:30S 29°52' E 031°03'1 2.2
2017-Nov-28 08:58S 29°53' E 031°02'0 0.0
2017-Nov-28 08:28S 29°53' E 031°02'0 0.0
2017-Nov-28 07:58S 29°53' E 031°02'0 0.0
2017-Nov-28 07:28S 29°53' E 031°02'0 0.0
2017-Nov-28 06:58S 29°53' E 031°02'0 0.0
2017-Nov-28 06:28S 29°53' E 031°02'0 0.0
2017-Nov-28 05:58S 29°53' E 031°02'0 0.0
2017-Nov-28 05:28S 29°53' E 031°02'0 0.0
2017-Nov-28 04:28S 29°53' E 031°02'0 0.0
2017-Nov-28 03:58S 29°53' E 031°02'0 0.0
2017-Nov-28 03:28S 29°53' E 031°02'0 0.0
2017-Nov-28 02:58S 29°53' E 031°02'0 0.0
2017-Nov-28 02:28S 29°53' E 031°02'0 0.0
2017-Nov-28 01:58S 29°53' E 031°02'0 0.0
2017-Nov-28 01:28S 29°53' E 031°02'0 0.0
2017-Nov-28 00:58S 29°53' E 031°02'0 0.0
2017-Nov-28 00:28S 29°53' E 031°02'0 0.0
2017-Nov-27 23:58S 29°53' E 031°02'0 0.0
2017-Nov-27 23:28S 29°53' E 031°02'0 0.0
2017-Nov-27 22:58S 29°53' E 031°02'0 0.0
2017-Nov-27 22:28S 29°53' E 031°02'0 0.0
2017-Nov-27 21:58S 29°53' E 031°02'0 0.0
2017-Nov-27 21:28S 29°53' E 031°02'0 0.0
2017-Nov-27 20:58S 29°53' E 031°02'0 0.0
2017-Nov-27 20:28S 29°53' E 031°02'0 0.0
2017-Nov-27 19:58S 29°53' E 031°02'0 0.0
2017-Nov-27 19:25S 29°53' E 031°02'0 0.0
2017-Nov-27 18:58S 29°53' E 031°02'0 0.0
2017-Nov-27 18:28S 29°53' E 031°02'0 0.0
2017-Nov-27 17:58S 29°53' E 031°02'0 0.0
2017-Nov-27 17:28S 29°53' E 031°02'0 0.0
2017-Nov-27 16:58S 29°53' E 031°02'0 0.0
2017-Nov-27 16:28S 29°53' E 031°02'0 0.0
2017-Nov-27 15:58S 29°53' E 031°02'0 0.0
2017-Nov-27 15:28S 29°53' E 031°02'0 0.0
2017-Nov-27 14:55S 29°53' E 031°02'0 0.0
2017-Nov-27 14:22S 29°53' E 031°02'0 0.0
2017-Nov-27 13:58S 29°53' E 031°02'0 0.0
2017-Nov-27 13:28S 29°53' E 031°02'0 0.0
2017-Nov-27 12:58S 29°53' E 031°02'0 0.0
2017-Nov-27 12:28S 29°53' E 031°02'0 0.0
2017-Nov-27 11:58S 29°53' E 031°02'0 0.0
2017-Nov-27 11:28S 29°53' E 031°02'0 0.0
2017-Nov-27 10:58S 29°53' E 031°02'0 0.0
2017-Nov-27 10:25S 29°53' E 031°02'0 0.0
2017-Nov-27 09:58S 29°53' E 031°02'0 0.0
2017-Nov-27 09:25S 29°53' E 031°02'0 0.0
2017-Nov-27 08:58S 29°53' E 031°02'0 0.0
2017-Nov-27 08:31S 29°53' E 031°02'0 0.0
2017-Nov-27 07:58S 29°53' E 031°02'0 0.0
2017-Nov-27 07:28S 29°53' E 031°02'0 0.0
2017-Nov-27 07:01S 29°53' E 031°02'0 0.0
2017-Nov-27 06:28S 29°53' E 031°02'0 0.0
2017-Nov-27 05:58S 29°53' E 031°02'0 0.0
2017-Nov-27 05:27S 29°53' E 031°02'0 0.0
2017-Nov-27 04:57S 29°53' E 031°02'0 0.0
2017-Nov-27 04:28S 29°53' E 031°02'0 0.0
2017-Nov-27 03:58S 29°53' E 031°02'0 0.0
2017-Nov-27 03:30S 29°53' E 031°02'0 0.0
2017-Nov-27 03:01S 29°53' E 031°02'0 0.0
2017-Nov-27 02:28S 29°53' E 031°02'0 0.0
2017-Nov-27 01:58S 29°53' E 031°02'0 0.0
2017-Nov-27 01:30S 29°53' E 031°02'0 0.0
2017-Nov-27 00:58S 29°53' E 031°02'0 0.0
2017-Nov-27 00:30S 29°53' E 031°02'0 0.0
2017-Nov-26 23:55S 29°53' E 031°02'0 0.0
2017-Nov-26 23:31S 29°53' E 031°02'0 0.0
2017-Nov-26 23:01S 29°53' E 031°02'0 0.0
2017-Nov-26 22:30S 29°53' E 031°02'0 0.0
2017-Nov-26 22:01S 29°53' E 031°02'0 0.0
2017-Nov-26 21:27S 29°53' E 031°02'0 0.0
2017-Nov-26 21:00S 29°53' E 031°02'0 0.0
2017-Nov-26 20:28S 29°53' E 031°02'0 0.0
2017-Nov-26 20:00S 29°53' E 031°02'0 0.0
2017-Nov-26 19:30S 29°53' E 031°02'0 0.0
2017-Nov-26 19:00S 29°53' E 031°02'0 0.0
2017-Nov-26 18:31S 29°53' E 031°02'0 0.0
2017-Nov-26 18:00S 29°53' E 031°02'0 0.0
2017-Nov-26 17:30S 29°53' E 031°02'0 0.0
2017-Nov-26 16:54S 29°53' E 031°02'0 0.0
2017-Nov-26 16:27S 29°53' E 031°02'0 0.0
2017-Nov-26 16:00S 29°53' E 031°02'0 0.0
2017-Nov-26 15:30S 29°53' E 031°02'0 0.0
2017-Nov-26 15:00S 29°53' E 031°02'0 0.0
2017-Nov-26 14:30S 29°53' E 031°02'0 0.0
2017-Nov-26 13:57S 29°53' E 031°02'0 0.0
2017-Nov-26 13:27S 29°53' E 031°02'0 0.0
2017-Nov-26 13:01S 29°53' E 031°02'0 0.0
2017-Nov-26 12:21S 29°53' E 031°02'0 0.0
2017-Nov-26 12:00S 29°53' E 031°02'0 0.0
2017-Nov-26 11:27S 29°53' E 031°02'0 0.0
2017-Nov-26 10:57S 29°53' E 031°02'0 0.0
2017-Nov-26 10:30S 29°53' E 031°02'0 0.0
2017-Nov-26 10:00S 29°53' E 031°02'0 0.0
2017-Nov-26 09:30S 29°53' E 031°02'0 0.0
2017-Nov-26 09:00S 29°53' E 031°02'0 0.0
2017-Nov-26 08:30S 29°53' E 031°02'0 0.0
2017-Nov-26 07:57S 29°53' E 031°02'0 0.0
2017-Nov-26 07:30S 29°53' E 031°02'0 0.0
2017-Nov-26 07:00S 29°53' E 031°02'0 0.0
2017-Nov-26 06:30S 29°53' E 031°02'0 0.0
2017-Nov-26 05:57S 29°53' E 031°02'0 0.0
2017-Nov-26 05:30S 29°53' E 031°02'0 0.0
2017-Nov-26 04:57S 29°53' E 031°02'0 0.0
2017-Nov-26 04:30S 29°53' E 031°02'0 0.0
2017-Nov-26 03:54S 29°53' E 031°02'0 0.0
2017-Nov-26 03:30S 29°53' E 031°02'0 0.0
2017-Nov-26 03:00S 29°53' E 031°02'0 0.0
2017-Nov-26 02:30S 29°53' E 031°02'0 0.0
2017-Nov-26 01:57S 29°53' E 031°02'0 0.0
2017-Nov-26 01:30S 29°53' E 031°02'0 0.0
2017-Nov-26 01:00S 29°53' E 031°02'0 0.0
2017-Nov-26 00:27S 29°53' E 031°02'0 0.0
2017-Nov-26 00:00S 29°53' E 031°02'0 0.0
2017-Nov-25 23:30S 29°53' E 031°02'0 0.0
2017-Nov-25 23:00S 29°53' E 031°02'0 0.0
2017-Nov-25 22:30S 29°53' E 031°02'0 0.0
2017-Nov-25 21:57S 29°53' E 031°02'0 0.0
2017-Nov-25 21:27S 29°53' E 031°02'0 0.0
2017-Nov-25 20:57S 29°53' E 031°02'0 0.0
2017-Nov-25 20:30S 29°53' E 031°02'0 0.0
2017-Nov-25 20:00S 29°53' E 031°02'0 0.0
2017-Nov-25 19:30S 29°53' E 031°02'0 0.0
2017-Nov-25 19:00S 29°53' E 031°02'0 0.0
2017-Nov-25 18:30S 29°53' E 031°02'0 0.0
2017-Nov-25 18:00S 29°53' E 031°02'0 0.0
2017-Nov-25 17:30S 29°53' E 031°02'0 0.0
2017-Nov-25 17:00S 29°53' E 031°02'0 0.0
2017-Nov-25 16:30S 29°53' E 031°02'0 0.0
2017-Nov-25 15:57S 29°53' E 031°02'0 0.0
2017-Nov-25 15:30S 29°53' E 031°02'0 0.0
2017-Nov-25 15:00S 29°53' E 031°02'0 0.0
2017-Nov-25 14:30S 29°53' E 031°02'0 0.0
2017-Nov-25 14:00S 29°53' E 031°02'0 0.0
2017-Nov-25 13:30S 29°53' E 031°02'0 0.0
2017-Nov-25 13:00S 29°53' E 031°02'0 0.0
2017-Nov-25 12:30S 29°53' E 031°02'0 0.0
2017-Nov-25 11:57S 29°53' E 031°02'0 0.0
2017-Nov-25 11:27S 29°53' E 031°02'0 0.0
2017-Nov-25 11:00S 29°53' E 031°02'0 0.0
2017-Nov-25 10:30S 29°53' E 031°02'0 0.0
2017-Nov-25 10:00S 29°53' E 031°02'0 0.0
2017-Nov-25 09:30S 29°53' E 031°02'0 0.0
2017-Nov-25 09:00S 29°53' E 031°02'0 0.0
2017-Nov-25 08:30S 29°53' E 031°02'0 0.0
2017-Nov-25 08:00S 29°53' E 031°02'0 0.0
2017-Nov-25 07:30S 29°53' E 031°02'0 0.0
2017-Nov-25 07:00S 29°53' E 031°02'0 0.0
2017-Nov-25 06:30S 29°53' E 031°02'0 0.0
2017-Nov-25 06:00S 29°53' E 031°02'0 0.0
2017-Nov-25 05:30S 29°53' E 031°02'0 0.0
2017-Nov-25 05:00S 29°53' E 031°02'0 0.0
2017-Nov-25 04:27S 29°53' E 031°02'0 0.0
2017-Nov-25 04:00S 29°53' E 031°02'0 0.0
2017-Nov-25 03:30S 29°53' E 031°02'0 0.0
2017-Nov-25 03:00S 29°53' E 031°02'0 0.0
2017-Nov-25 02:30S 29°53' E 031°02'0 0.0
2017-Nov-25 02:00S 29°53' E 031°02'0 0.0
2017-Nov-25 01:30S 29°53' E 031°02'0 0.0
2017-Nov-25 01:00S 29°53' E 031°02'0 0.0
2017-Nov-25 00:30S 29°53' E 031°02'0 0.0
2017-Nov-25 00:00S 29°53' E 031°02'0 0.0
2017-Nov-24 23:30S 29°53' E 031°02'0 0.0
2017-Nov-24 23:00S 29°53' E 031°02'0 0.0
2017-Nov-24 22:30S 29°53' E 031°02'0 0.0
2017-Nov-24 21:57S 29°53' E 031°02'0 0.0
2017-Nov-24 21:30S 29°53' E 031°02'0 0.0
2017-Nov-24 21:00S 29°53' E 031°02'0 0.0
2017-Nov-24 20:30S 29°53' E 031°02'0 0.0
2017-Nov-24 20:00S 29°53' E 031°02'0 0.0
2017-Nov-24 19:30S 29°53' E 031°02'0 0.0
2017-Nov-24 19:00S 29°53' E 031°02'0 0.0
2017-Nov-24 18:30S 29°53' E 031°02'0 0.0
2017-Nov-24 18:00S 29°53' E 031°02'0 0.0
2017-Nov-24 17:30S 29°53' E 031°02'0 0.0
2017-Nov-24 16:57S 29°53' E 031°02'0 0.0
2017-Nov-24 16:30S 29°53' E 031°02'0 0.0
2017-Nov-24 16:00S 29°53' E 031°02'0 0.0
2017-Nov-24 15:30S 29°53' E 031°02'0 0.0
2017-Nov-24 14:57S 29°53' E 031°02'0 0.0
2017-Nov-24 14:30S 29°53' E 031°02'0 0.0
2017-Nov-24 13:57S 29°53' E 031°02'0 0.0
2017-Nov-24 13:30S 29°53' E 031°02'0 0.0
2017-Nov-24 13:00S 29°53' E 031°02'0 0.0
2017-Nov-24 12:30S 29°53' E 031°02'0 0.0
2017-Nov-24 12:00S 29°53' E 031°02'0 0.0
2017-Nov-24 11:27S 29°53' E 031°02'0 0.0
2017-Nov-24 11:00S 29°53' E 031°02'0 0.0
2017-Nov-24 10:27S 29°53' E 031°02'0 0.0
2017-Nov-24 10:00S 29°53' E 031°02'0 0.0
2017-Nov-24 09:30S 29°53' E 031°02'0 0.0
2017-Nov-24 08:57S 29°53' E 031°02'0 0.0
2017-Nov-24 08:27S 29°53' E 031°02'0 0.0
2017-Nov-24 08:00S 29°53' E 031°02'0 0.0
2017-Nov-24 07:27S 29°53' E 031°02'0 0.0
2017-Nov-24 06:57S 29°53' E 031°02'0 0.0
2017-Nov-24 06:27S 29°53' E 031°02'0 0.0
2017-Nov-24 06:00S 29°53' E 031°02'0 0.0
2017-Nov-24 05:27S 29°53' E 031°02'0 0.0
2017-Nov-24 04:57S 29°53' E 031°02'0 0.0
2017-Nov-24 04:18S 29°53' E 031°02'0 0.0
2017-Nov-24 03:54S 29°53' E 031°02'0 0.0
2017-Nov-24 03:27S 29°53' E 031°02'0 0.0
2017-Nov-24 03:00S 29°53' E 031°02'0 0.0
2017-Nov-24 02:30S 29°53' E 031°02'0 0.0
2017-Nov-24 02:00S 29°53' E 031°02'0 0.0
2017-Nov-24 01:30S 29°53' E 031°02'0 0.0
2017-Nov-24 00:57S 29°53' E 031°02'0 0.0
2017-Nov-24 00:27S 29°53' E 031°02'0 0.0
2017-Nov-23 23:57S 29°53' E 031°02'0 0.0
2017-Nov-23 23:30S 29°53' E 031°02'  
Track history (hours):
 
Tides and Currents Weather Stations Pressure Air Temp Water Temp Dewpoint Dewpoint Depression Visibility Wind Speed Wind Dir Waves Ship Positions

Stolt Lind

Last reported at 2017-Dec-03 23:07 UTC. Time now 2017-Dec-18 03:21 UTC.
Position S 30°24' E 031°16'.
Warning: this ship's position is 14 days out of date.

Length 185 m; draft 10.8 m.

Type: Ship (hazmat cat A). MMSI: 232006648.

Date/timePositionNaut miles runAvg speedWind from/ knotsBaromVisibWave heightAir tempDewpointWater temp
2017-Dec-03 23:07S 30°24' E 031°16'214.4
2017-Dec-03 23:00S 30°23' E 031°17'714.3
2017-Dec-03 22:30S 30°17' E 031°21'714.2
2017-Dec-03 22:00S 30°11' E 031°26'714.4
2017-Dec-03 21:30S 30°05' E 031°30'714.5
2017-Dec-03 21:00S 29°59' E 031°35'714.2
2017-Dec-03 20:30S 29°53' E 031°39'714.1
2017-Dec-03 20:01S 29°47' E 031°44'713.8
2017-Dec-03 19:30S 29°41' E 031°48'713.7
2017-Dec-03 19:00S 29°36' E 031°53'48 1.6
2017-Dec-02 13:18S 28°48' E 032°04'0 0.0
2017-Dec-02 12:57S 28°48' E 032°04'4 0.2
2017-Dec-01 09:59S 28°50' E 032°08'  
2017-Nov-28 13:07S 29°50' E 031°50'110.5
2017-Nov-28 12:59S 29°50' E 031°48'510.3
2017-Nov-28 12:30S 29°50' E 031°43'510.4
2017-Nov-28 12:01S 29°50' E 031°37'612.4
2017-Nov-28 11:30S 29°50' E 031°29'612.6
2017-Nov-28 11:00S 29°50' E 031°22'612.4
2017-Nov-28 10:30S 29°50' E 031°15'611.6
2017-Nov-28 10:00S 29°50' E 031°08'5 9.7
2017-Nov-28 09:30S 29°52' E 031°03'1 2.2
2017-Nov-28 08:58S 29°53' E 031°02'0 0.0
2017-Nov-28 08:28S 29°53' E 031°02'0 0.0
2017-Nov-28 07:58S 29°53' E 031°02'0 0.0
2017-Nov-28 07:28S 29°53' E 031°02'0 0.0
2017-Nov-28 06:58S 29°53' E 031°02'0 0.0
2017-Nov-28 06:28S 29°53' E 031°02'0 0.0
2017-Nov-28 05:58S 29°53' E 031°02'0 0.0
2017-Nov-28 05:28S 29°53' E 031°02'0 0.0
2017-Nov-28 04:28S 29°53' E 031°02'0 0.0
2017-Nov-28 03:58S 29°53' E 031°02'0 0.0
2017-Nov-28 03:28S 29°53' E 031°02'0 0.0
2017-Nov-28 02:58S 29°53' E 031°02'0 0.0
2017-Nov-28 02:28S 29°53' E 031°02'0 0.0
2017-Nov-28 01:58S 29°53' E 031°02'0 0.0
2017-Nov-28 01:28S 29°53' E 031°02'0 0.0
2017-Nov-28 00:58S 29°53' E 031°02'0 0.0
2017-Nov-28 00:28S 29°53' E 031°02'0 0.0
2017-Nov-27 23:58S 29°53' E 031°02'0 0.0
2017-Nov-27 23:28S 29°53' E 031°02'0 0.0
2017-Nov-27 22:58S 29°53' E 031°02'0 0.0
2017-Nov-27 22:28S 29°53' E 031°02'0 0.0
2017-Nov-27 21:58S 29°53' E 031°02'0 0.0
2017-Nov-27 21:28S 29°53' E 031°02'0 0.0
2017-Nov-27 20:58S 29°53' E 031°02'0 0.0
2017-Nov-27 20:28S 29°53' E 031°02'0 0.0
2017-Nov-27 19:58S 29°53' E 031°02'0 0.0
2017-Nov-27 19:25S 29°53' E 031°02'0 0.0
2017-Nov-27 18:58S 29°53' E 031°02'0 0.0
2017-Nov-27 18:28S 29°53' E 031°02'0 0.0
2017-Nov-27 17:58S 29°53' E 031°02'0 0.0
2017-Nov-27 17:28S 29°53' E 031°02'0 0.0
2017-Nov-27 16:58S 29°53' E 031°02'0 0.0
2017-Nov-27 16:28S 29°53' E 031°02'0 0.0
2017-Nov-27 15:58S 29°53' E 031°02'0 0.0
2017-Nov-27 15:28S 29°53' E 031°02'0 0.0
2017-Nov-27 14:55S 29°53' E 031°02'0 0.0
2017-Nov-27 14:22S 29°53' E 031°02'0 0.0
2017-Nov-27 13:58S 29°53' E 031°02'0 0.0
2017-Nov-27 13:28S 29°53' E 031°02'0 0.0
2017-Nov-27 12:58S 29°53' E 031°02'0 0.0
2017-Nov-27 12:28S 29°53' E 031°02'0 0.0
2017-Nov-27 11:58S 29°53' E 031°02'0 0.0
2017-Nov-27 11:28S 29°53' E 031°02'0 0.0
2017-Nov-27 10:58S 29°53' E 031°02'0 0.0
2017-Nov-27 10:25S 29°53' E 031°02'0 0.0
2017-Nov-27 09:58S 29°53' E 031°02'0 0.0
2017-Nov-27 09:25S 29°53' E 031°02'0 0.0
2017-Nov-27 08:58S 29°53' E 031°02'0 0.0
2017-Nov-27 08:31S 29°53' E 031°02'0 0.0
2017-Nov-27 07:58S 29°53' E 031°02'0 0.0
2017-Nov-27 07:28S 29°53' E 031°02'0 0.0
2017-Nov-27 07:01S 29°53' E 031°02'0 0.0
2017-Nov-27 06:28S 29°53' E 031°02'0 0.0
2017-Nov-27 05:58S 29°53' E 031°02'0 0.0
2017-Nov-27 05:27S 29°53' E 031°02'0 0.0
2017-Nov-27 04:57S 29°53' E 031°02'0 0.0
2017-Nov-27 04:28S 29°53' E 031°02'0 0.0
2017-Nov-27 03:58S 29°53' E 031°02'0 0.0
2017-Nov-27 03:30S 29°53' E 031°02'0 0.0
2017-Nov-27 03:01S 29°53' E 031°02'0 0.0
2017-Nov-27 02:28S 29°53' E 031°02'0 0.0
2017-Nov-27 01:58S 29°53' E 031°02'0 0.0
2017-Nov-27 01:30S 29°53' E 031°02'0 0.0
2017-Nov-27 00:58S 29°53' E 031°02'0 0.0
2017-Nov-27 00:30S 29°53' E 031°02'0 0.0
2017-Nov-26 23:55S 29°53' E 031°02'0 0.0
2017-Nov-26 23:31S 29°53' E 031°02'0 0.0
2017-Nov-26 23:01S 29°53' E 031°02'0 0.0
2017-Nov-26 22:30S 29°53' E 031°02'0 0.0
2017-Nov-26 22:01S 29°53' E 031°02'0 0.0
2017-Nov-26 21:27S 29°53' E 031°02'0 0.0
2017-Nov-26 21:00S 29°53' E 031°02'0 0.0
2017-Nov-26 20:28S 29°53' E 031°02'0 0.0
2017-Nov-26 20:00S 29°53' E 031°02'0 0.0
2017-Nov-26 19:30S 29°53' E 031°02'0 0.0
2017-Nov-26 19:00S 29°53' E 031°02'0 0.0
2017-Nov-26 18:31S 29°53' E 031°02'0 0.0
2017-Nov-26 18:00S 29°53' E 031°02'0 0.0
2017-Nov-26 17:30S 29°53' E 031°02'0 0.0
2017-Nov-26 16:54S 29°53' E 031°02'0 0.0
2017-Nov-26 16:27S 29°53' E 031°02'0 0.0
2017-Nov-26 16:00S 29°53' E 031°02'0 0.0
2017-Nov-26 15:30S 29°53' E 031°02'0 0.0
2017-Nov-26 15:00S 29°53' E 031°02'0 0.0
2017-Nov-26 14:30S 29°53' E 031°02'0 0.0
2017-Nov-26 13:57S 29°53' E 031°02'0 0.0
2017-Nov-26 13:27S 29°53' E 031°02'0 0.0
2017-Nov-26 13:01S 29°53' E 031°02'0 0.0
2017-Nov-26 12:21S 29°53' E 031°02'0 0.0
2017-Nov-26 12:00S 29°53' E 031°02'0 0.0
2017-Nov-26 11:27S 29°53' E 031°02'0 0.0
2017-Nov-26 10:57S 29°53' E 031°02'0 0.0
2017-Nov-26 10:30S 29°53' E 031°02'0 0.0
2017-Nov-26 10:00S 29°53' E 031°02'0 0.0
2017-Nov-26 09:30S 29°53' E 031°02'0 0.0
2017-Nov-26 09:00S 29°53' E 031°02'0 0.0
2017-Nov-26 08:30S 29°53' E 031°02'0 0.0
2017-Nov-26 07:57S 29°53' E 031°02'0 0.0
2017-Nov-26 07:30S 29°53' E 031°02'0 0.0
2017-Nov-26 07:00S 29°53' E 031°02'0 0.0
2017-Nov-26 06:30S 29°53' E 031°02'0 0.0
2017-Nov-26 05:57S 29°53' E 031°02'0 0.0
2017-Nov-26 05:30S 29°53' E 031°02'0 0.0
2017-Nov-26 04:57S 29°53' E 031°02'0 0.0
2017-Nov-26 04:30S 29°53' E 031°02'0 0.0
2017-Nov-26 03:54S 29°53' E 031°02'0 0.0
2017-Nov-26 03:30S 29°53' E 031°02'0 0.0
2017-Nov-26 03:00S 29°53' E 031°02'0 0.0
2017-Nov-26 02:30S 29°53' E 031°02'0 0.0
2017-Nov-26 01:57S 29°53' E 031°02'0 0.0
2017-Nov-26 01:30S 29°53' E 031°02'0 0.0
2017-Nov-26 01:00S 29°53' E 031°02'0 0.0
2017-Nov-26 00:27S 29°53' E 031°02'0 0.0
2017-Nov-26 00:00S 29°53' E 031°02'0 0.0
2017-Nov-25 23:30S 29°53' E 031°02'0 0.0
2017-Nov-25 23:00S 29°53' E 031°02'0 0.0
2017-Nov-25 22:30S 29°53' E 031°02'0 0.0
2017-Nov-25 21:57S 29°53' E 031°02'0 0.0
2017-Nov-25 21:27S 29°53' E 031°02'0 0.0
2017-Nov-25 20:57S 29°53' E 031°02'0 0.0
2017-Nov-25 20:30S 29°53' E 031°02'0 0.0
2017-Nov-25 20:00S 29°53' E 031°02'0 0.0
2017-Nov-25 19:30S 29°53' E 031°02'0 0.0
2017-Nov-25 19:00S 29°53' E 031°02'0 0.0
2017-Nov-25 18:30S 29°53' E 031°02'0 0.0
2017-Nov-25 18:00S 29°53' E 031°02'0 0.0
2017-Nov-25 17:30S 29°53' E 031°02'0 0.0
2017-Nov-25 17:00S 29°53' E 031°02'0 0.0
2017-Nov-25 16:30S 29°53' E 031°02'0 0.0
2017-Nov-25 15:57S 29°53' E 031°02'0 0.0
2017-Nov-25 15:30S 29°53' E 031°02'0 0.0
2017-Nov-25 15:00S 29°53' E 031°02'0 0.0
2017-Nov-25 14:30S 29°53' E 031°02'0 0.0
2017-Nov-25 14:00S 29°53' E 031°02'0 0.0
2017-Nov-25 13:30S 29°53' E 031°02'0 0.0
2017-Nov-25 13:00S 29°53' E 031°02'0 0.0
2017-Nov-25 12:30S 29°53' E 031°02'0 0.0
2017-Nov-25 11:57S 29°53' E 031°02'0 0.0
2017-Nov-25 11:27S 29°53' E 031°02'0 0.0
2017-Nov-25 11:00S 29°53' E 031°02'0 0.0
2017-Nov-25 10:30S 29°53' E 031°02'0 0.0
2017-Nov-25 10:00S 29°53' E 031°02'0 0.0
2017-Nov-25 09:30S 29°53' E 031°02'0 0.0
2017-Nov-25 09:00S 29°53' E 031°02'0 0.0
2017-Nov-25 08:30S 29°53' E 031°02'0 0.0
2017-Nov-25 08:00S 29°53' E 031°02'0 0.0
2017-Nov-25 07:30S 29°53' E 031°02'0 0.0
2017-Nov-25 07:00S 29°53' E 031°02'0 0.0
2017-Nov-25 06:30S 29°53' E 031°02'0 0.0
2017-Nov-25 06:00S 29°53' E 031°02'0 0.0
2017-Nov-25 05:30S 29°53' E 031°02'0 0.0
2017-Nov-25 05:00S 29°53' E 031°02'0 0.0
2017-Nov-25 04:27S 29°53' E 031°02'0 0.0
2017-Nov-25 04:00S 29°53' E 031°02'0 0.0
2017-Nov-25 03:30S 29°53' E 031°02'0 0.0
2017-Nov-25 03:00S 29°53' E 031°02'0 0.0
2017-Nov-25 02:30S 29°53' E 031°02'0 0.0
2017-Nov-25 02:00S 29°53' E 031°02'0 0.0
2017-Nov-25 01:30S 29°53' E 031°02'0 0.0
2017-Nov-25 01:00S 29°53' E 031°02'0 0.0
2017-Nov-25 00:30S 29°53' E 031°02'0 0.0
2017-Nov-25 00:00S 29°53' E 031°02'0 0.0
2017-Nov-24 23:30S 29°53' E 031°02'0 0.0
2017-Nov-24 23:00S 29°53' E 031°02'0 0.0
2017-Nov-24 22:30S 29°53' E 031°02'0 0.0
2017-Nov-24 21:57S 29°53' E 031°02'0 0.0
2017-Nov-24 21:30S 29°53' E 031°02'0 0.0
2017-Nov-24 21:00S 29°53' E 031°02'0 0.0
2017-Nov-24 20:30S 29°53' E 031°02'0 0.0
2017-Nov-24 20:00S 29°53' E 031°02'0 0.0
2017-Nov-24 19:30S 29°53' E 031°02'0 0.0
2017-Nov-24 19:00S 29°53' E 031°02'0 0.0
2017-Nov-24 18:30S 29°53' E 031°02'0 0.0
2017-Nov-24 18:00S 29°53' E 031°02'0 0.0
2017-Nov-24 17:30S 29°53' E 031°02'0 0.0
2017-Nov-24 16:57S 29°53' E 031°02'0 0.0
2017-Nov-24 16:30S 29°53' E 031°02'0 0.0
2017-Nov-24 16:00S 29°53' E 031°02'0 0.0
2017-Nov-24 15:30S 29°53' E 031°02'0 0.0
2017-Nov-24 14:57S 29°53' E 031°02'0 0.0
2017-Nov-24 14:30S 29°53' E 031°02'0 0.0
2017-Nov-24 13:57S 29°53' E 031°02'0 0.0
2017-Nov-24 13:30S 29°53' E 031°02'0 0.0
2017-Nov-24 13:00S 29°53' E 031°02'0 0.0
2017-Nov-24 12:30S 29°53' E 031°02'0 0.0
2017-Nov-24 12:00S 29°53' E 031°02'0 0.0
2017-Nov-24 11:27S 29°53' E 031°02'0 0.0
2017-Nov-24 11:00S 29°53' E 031°02'0 0.0
2017-Nov-24 10:27S 29°53' E 031°02'0 0.0
2017-Nov-24 10:00S 29°53' E 031°02'0 0.0
2017-Nov-24 09:30S 29°53' E 031°02'0 0.0
2017-Nov-24 08:57S 29°53' E 031°02'0 0.0
2017-Nov-24 08:27S 29°53' E 031°02'0 0.0
2017-Nov-24 08:00S 29°53' E 031°02'0 0.0
2017-Nov-24 07:27S 29°53' E 031°02'0 0.0
2017-Nov-24 06:57S 29°53' E 031°02'0 0.0
2017-Nov-24 06:27S 29°53' E 031°02'0 0.0
2017-Nov-24 06:00S 29°53' E 031°02'0 0.0
2017-Nov-24 05:27S 29°53' E 031°02'0 0.0
2017-Nov-24 04:57S 29°53' E 031°02'0 0.0
2017-Nov-24 04:18S 29°53' E 031°02'0 0.0
2017-Nov-24 03:54S 29°53' E 031°02'0 0.0
2017-Nov-24 03:27S 29°53' E 031°02'0 0.0
2017-Nov-24 03:00S 29°53' E 031°02'0 0.0
2017-Nov-24 02:30S 29°53' E 031°02'0 0.0
2017-Nov-24 02:00S 29°53' E 031°02'0 0.0
2017-Nov-24 01:30S 29°53' E 031°02'0 0.0
2017-Nov-24 00:57S 29°53' E 031°02'0 0.0
2017-Nov-24 00:27S 29°53' E 031°02'0 0.0
2017-Nov-23 23:57S 29°53' E 031°02'0 0.0
2017-Nov-23 23:30S 29°53' E 031°02'  

Dump ship's entire track history